• Join FlightAware (Why Join?)
  • Login
  • US Flag 
04:38AM EDT


 

Airport Tracker/Info


-or-


 

Live Flight TrackerFlight Track Log ✈ SKW6492 ✈ 26-Jan-2014 ✈ KDEN - KCOD

Flight Track Log - Related Links

Times and Time Zones

All times are in EST time to prevent confusion due to time zone crossing. See the SKW6492 flight status page for this flight to view local times or setup timezone preferences in your user account.

Time Position Orientation Groundspeed Altitude Reporting Facility
EST Latitude Longitude Course Direction KTS MPH feet Rate Location/Type
11:05PM 39.9167 -104.6833 346° North 185 213 6,800  Level Denver TRACON
11:06PM 39.9833 -104.6667 11° North 238 274 8,800 1,800 Climbing Denver TRACON
11:07PM 40.0500 -104.6667 360° North 281 323 10,400 2,100 Climbing Denver TRACON
11:09PM 40.1636 -104.6847 353° North 280 322 13,800 2,040 Climbing Denver Center
11:10PM 40.3022 -104.8123 347° North  Level FlightAware Approximate
11:10PM 40.2406 -104.7058 348° North 282 325 15,300  Level Denver Center
11:11PM 40.3927 -104.8420 346° North  Level FlightAware Approximate
11:11PM 40.3219 -104.7281 348° North 297 342 17,000  Level Denver Center
11:12PM 40.4072 -104.7508 349° North 312 359 18,200 1,320 Climbing Denver Center
11:13PM 40.4994 -104.7753 349° North 314 361 19,800 1,320 Climbing Denver Center
11:14PM 40.5814 -104.7953 349° North 324 373 21,000 1,260 Climbing Denver Center
11:15PM 40.6633 -104.8172 349° North 316 364 22,400 1,440 Climbing Denver Center
11:16PM 40.7556 -104.8758 334° Northwest 313 360 24,000 1,260 Climbing Denver Center
11:17PM 40.8219 -104.9408 323° Northwest 301 346 25,100 780 Climbing Denver Center
11:18PM 40.8778 -104.9986 322° Northwest 312 359 25,600 540 Climbing Denver Center
11:19PM 40.9636 -105.0861 322° Northwest 324 373 26,300 600 Climbing Denver Center
11:20PM 41.0322 -105.1558 323° Northwest 331 381 26,900 600 Climbing Denver Center
11:21PM 41.1144 -105.2400 322° Northwest 334 384 27,600 540 Climbing Denver Center
11:22PM 41.1856 -105.3147 322° Northwest 339 390 28,100 540 Climbing Denver Center
11:23PM 41.2572 -105.3883 322° Northwest 340 391 28,700 600 Climbing Denver Center
11:24PM 41.3400 -105.4744 322° Northwest 339 390 29,400 600 Climbing Denver Center
11:25PM 41.4114 -105.5494 322° Northwest 341 392 30,000 540 Climbing Denver Center
11:26PM 41.4931 -105.6353 322° Northwest 336 387 30,600 540 Climbing Denver Center
11:27PM 41.5628 -105.7097 321° Northwest 334 384 31,200 540 Climbing Denver Center
11:28PM 41.6314 -105.7811 322° Northwest 330 380 31,800 360 Climbing Denver Center
11:29PM 41.7125 -105.8672 322° Northwest 332 382 32,000 60 Climbing Denver Center
11:30PM 41.7819 -105.9406 322° Northwest 332 382 32,000  Level Denver Center
11:31PM 41.8486 -106.0122 321° Northwest 326 375 32,000  Level Denver Center
11:32PM 41.9275 -106.0956 322° Northwest 323 372 32,000  Level Denver Center
11:33PM 41.9936 -106.1664 321° Northwest 320 368 32,000  Level Denver Center
11:34PM 42.0597 -106.2356 322° Northwest 316 364 32,000  Level Denver Center
11:35PM 42.1339 -106.3169 321° Northwest 309 356 32,000  Level Denver Center
11:36PM 42.1992 -106.3872 321° Northwest 312 359 32,000  Level Denver Center
11:37PM 42.2644 -106.4575 321° Northwest 313 360 32,000  Level Denver Center
11:38PM 42.3383 -106.5386 321° Northwest 314 361 32,000  Level Denver Center
11:39PM 42.4056 -106.6119 321° Northwest 315 362 32,000  Level Denver Center
11:40PM 42.4717 -106.6828 322° Northwest 316 364 32,000  Level Denver Center
11:41PM 42.5478 -106.7672 321° Northwest 317 365 32,000  Level Denver Center
11:42PM 42.6122 -106.8378 321° Northwest 311 358 32,000  Level Denver Center
11:43PM 42.6783 -106.9108 321° Northwest 318 366 32,000  Level Denver Center
11:44PM 42.7544 -106.9947 321° Northwest 315 362 32,000  Level Denver Center
11:45PM 42.8214 -107.0672 322° Northwest 320 368 32,000  Level Denver Center
11:46PM 42.8836 -107.1378 320° Northwest 319 367 32,000  Level Salt Lake Center
11:47PM 42.9508 -107.2142 320° Northwest 319 367 32,000  Level Salt Lake Center
11:48PM 43.0192 -107.2897 321° Northwest 316 364 32,000  Level Salt Lake Center
11:49PM 43.0878 -107.3672 320° Northwest 320 368 32,000  Level Salt Lake Center
11:50PM 43.1725 -107.4558 323° Northwest 321 369 32,000  Level Salt Lake Center
11:51PM 43.2494 -107.5189 329° Northwest 323 372 32,000  Level Salt Lake Center
11:52PM 43.3253 -107.5844 328° Northwest 321 369 32,000  Level Salt Lake Center
11:53PM 43.4031 -107.6489 329° Northwest 326 375 32,000  Level Salt Lake Center
11:54PM 43.4792 -107.7122 329° Northwest 321 369 32,000  Level Salt Lake Center
11:55PM 43.5544 -107.7783 328° Northwest 321 369 32,000 -960 Level Salt Lake Center
11:56PM 43.6331 -107.8458 328° Northwest 330 380 30,100 -1,920 Descending Salt Lake Center
11:57PM 43.7153 -107.9172 328° Northwest 344 396 28,100 -1,980 Descending Salt Lake Center
11:58PM 43.7947 -107.9867 328° Northwest 341 392 26,100 -1,980 Descending Salt Lake Center
11:59PM 43.8742 -108.0550 328° Northwest 337 388 24,100 -1,920 Descending Salt Lake Center
12:00AM 43.9517 -108.1208 329° Northwest 328 377 22,200 -1,800 Descending Salt Lake Center
12:01AM 44.0244 -108.1853 328° Northwest 315 362 20,500 -1,680 Descending Salt Lake Center
12:02AM 44.0942 -108.2467 328° Northwest 306 352 18,800 -1,620 Descending Salt Lake Center
12:03AM 44.1650 -108.3081 328° Northwest 302 348 17,300 -1,620 Descending Salt Lake Center
12:04AM 44.2344 -108.3686 328° Northwest 299 344 15,600 -1,920 Descending Salt Lake Center
12:05AM 44.3125 -108.4375 328° Northwest 288 331 13,500 -1,620 Descending Salt Lake Center
12:07AM 44.3728 -108.4911 328° Northwest 275 316 12,400 -1,080 Descending Salt Lake Center
12:08AM 44.4322 -108.5428 328° Northwest 263 303 11,400 -1,020 Descending Salt Lake Center
12:09AM 44.4883 -108.5939 327° Northwest 253 291 10,400 -1,020 Descending Salt Lake Center
12:10AM 44.5436 -108.6417 328° Northwest 244 281 9,400 -780 Descending Salt Lake Center
12:11AM 44.5892 -108.6836 327° Northwest 224 258 8,900 -660 Descending Salt Lake Center
12:12AM 44.6286 -108.7261 323° Northwest 201 231 8,100 -480 Descending Salt Lake Center
12:13AM 44.6544 -108.7761 306° West 185 213 8,000 -300 Descending Salt Lake Center
12:14AM 44.6244 -108.8408 237° Southwest 194 223 7,500 -300 Descending Salt Lake Center
12:15AM 44.5956 -108.8931 232° Southwest 183 211 7,500 -480 Level Salt Lake Center
12:16AM 44.5686 -108.9397 231° Southwest 170 196 6,600 -840 Descending Salt Lake Center
12:17AM 44.5403 -108.9881 231° Southwest 160 184 5,900 -720 Descending Salt Lake Center